Mermaid Express — H9PV — position and weather

sailwx.info

Track history (hours):
 
Tides and Currents Weather Stations Pressure Air Temp Water Temp Dewpoint Dewpoint Depression Visibility Wind Speed Wind Dir Waves Ship Positions

Mermaid Express

Last reported at 2016-Aug-07 21:31 UTC. Time now 2016-Aug-28 05:10 UTC.
Position N 19°24' W 062°49'.
Warning: this ship's position is 20 days out of date.

Length 179 m; draft 10.6 m.

Type: Tanker. MMSI: 352866000.

Date/timePositionNaut miles runAvg speedWind from/ knotsBaromVisibWave heightAir tempDewpointWater temp
2016-Aug-07 21:31N 19°24' W 062°49'2512.6
2016-Aug-07 19:31N 19°26' W 063°15'  
2016-Aug-01 16:33N 29°28' W 093°40'1110.4
2016-Aug-01 15:32N 29°36' W 093°48'9 9.8
2016-Aug-01 14:33N 29°45' W 093°53'7 6.6
2016-Aug-01 13:33N 29°50' W 093°57'5 5.4
2016-Aug-01 12:33N 29°54' W 093°54'8 3.7
2016-Aug-01 10:32N 30°01' W 093°59'3 0.1
2016-Jul-31 08:13N 30°02' W 094°02'1 1.9
2016-Jul-31 07:33N 30°01' W 094°01'5 5.1
2016-Jul-31 06:33N 29°59' W 093°56'5 4.8
2016-Jul-31 05:33N 29°56' W 093°53'8 7.6
2016-Jul-31 04:33N 29°49' W 093°58'8 7.9
2016-Jul-31 03:34N 29°43' W 093°52'1110.5
2016-Jul-31 02:30N 29°34' W 093°46'9 8.5
2016-Jul-31 01:25N 29°25' W 093°41'1 1.2
2016-Jul-31 00:14N 29°25' W 093°42'1 0.1
2016-Jul-30 05:26N 29°24' W 093°41'20 9.6
2016-Jul-30 03:21N 29°04' W 093°46'1011.8
2016-Jul-30 02:28N 29°03' W 093°58'1312.1
2016-Jul-30 01:26N 29°03' W 094°12'1211.6
2016-Jul-30 00:23N 29°08' W 094°25'2211.1
2016-Jul-29 22:27N 29°21' W 094°45'1011.6
2016-Jul-29 21:33N 29°29' W 094°52'1010.4
2016-Jul-29 20:33N 29°38' W 094°58'8 7.5
2016-Jul-29 19:33N 29°44' W 095°03'5 5.0
2016-Jul-29 18:34N 29°44' W 095°09'  
Track history (hours):
 
Tides and Currents Weather Stations Pressure Air Temp Water Temp Dewpoint Dewpoint Depression Visibility Wind Speed Wind Dir Waves Ship Positions

Mermaid Express

Last reported at 2016-Aug-07 21:31 UTC. Time now 2016-Aug-28 05:10 UTC.
Position N 19°24' W 062°49'.
Warning: this ship's position is 20 days out of date.

Length 179 m; draft 10.6 m.

Type: Tanker. MMSI: 352866000.

Date/timePositionNaut miles runAvg speedWind from/ knotsBaromVisibWave heightAir tempDewpointWater temp
2016-Aug-07 21:31N 19°24' W 062°49'2512.6
2016-Aug-07 19:31N 19°26' W 063°15'  
2016-Aug-01 16:33N 29°28' W 093°40'1110.4
2016-Aug-01 15:32N 29°36' W 093°48'9 9.8
2016-Aug-01 14:33N 29°45' W 093°53'7 6.6
2016-Aug-01 13:33N 29°50' W 093°57'5 5.4
2016-Aug-01 12:33N 29°54' W 093°54'8 3.7
2016-Aug-01 10:32N 30°01' W 093°59'3 0.1
2016-Jul-31 08:13N 30°02' W 094°02'1 1.9
2016-Jul-31 07:33N 30°01' W 094°01'5 5.1
2016-Jul-31 06:33N 29°59' W 093°56'5 4.8
2016-Jul-31 05:33N 29°56' W 093°53'8 7.6
2016-Jul-31 04:33N 29°49' W 093°58'8 7.9
2016-Jul-31 03:34N 29°43' W 093°52'1110.5
2016-Jul-31 02:30N 29°34' W 093°46'9 8.5
2016-Jul-31 01:25N 29°25' W 093°41'1 1.2
2016-Jul-31 00:14N 29°25' W 093°42'1 0.1
2016-Jul-30 05:26N 29°24' W 093°41'20 9.6
2016-Jul-30 03:21N 29°04' W 093°46'1011.8
2016-Jul-30 02:28N 29°03' W 093°58'1312.1
2016-Jul-30 01:26N 29°03' W 094°12'1211.6
2016-Jul-30 00:23N 29°08' W 094°25'2211.1
2016-Jul-29 22:27N 29°21' W 094°45'1011.6
2016-Jul-29 21:33N 29°29' W 094°52'1010.4
2016-Jul-29 20:33N 29°38' W 094°58'8 7.5
2016-Jul-29 19:33N 29°44' W 095°03'5 5.0
2016-Jul-29 18:34N 29°44' W 095°09'  

Dump ship's entire track history